Time;durP1;ratioP1;P1;durP2;ratioP2;P2;SDS_P1;SDS_P2;PMS_P1;PMS_P2;Temp;Humidity;BMP_temperature;BMP_pressure;BME280_temperature;BME280_humidity;BME280_pressure;Samples;Min_cycle;Max_cycle;Signal;HPM_P1;HPM_P2
2023/08/23 00:01:13;;;;;;;12.32;8.68;;;18.00;99.90;;;;;;5086545;28;20019;-85
2023/08/23 00:03:39;;;;;;;14.05;9.20;;;18.00;99.90;;;;;;5082994;28;20039;-85
2023/08/23 00:06:05;;;;;;;16.70;9.18;;;18.00;99.90;;;;;;5083578;28;20463;-86
2023/08/23 00:08:32;;;;;;;14.57;9.23;;;18.00;99.90;;;;;;5080999;28;20024;-85
2023/08/23 00:10:58;;;;;;;13.20;9.00;;;17.90;99.90;;;;;;5081593;28;20379;-85
2023/08/23 00:13:25;;;;;;;12.35;9.20;;;17.90;99.90;;;;;;5065123;28;20089;-85
2023/08/23 00:15:56;;;;;;;11.70;9.17;;;17.80;99.90;;;;;;5083149;28;20035;-85
2023/08/23 00:18:22;;;;;;;11.95;8.57;;;17.80;99.90;;;;;;5067945;28;20278;-85
2023/08/23 00:20:47;;;;;;;15.00;8.25;;;17.90;99.90;;;;;;5081743;28;20024;-85
2023/08/23 00:23:13;;;;;;;15.55;8.75;;;17.90;99.90;;;;;;5062762;28;20754;-85
2023/08/23 00:25:42;;;;;;;10.93;7.93;;;17.80;99.90;;;;;;5083082;28;20063;-84
2023/08/23 00:28:08;;;;;;;13.77;9.57;;;17.80;99.90;;;;;;5081940;28;20032;-85
2023/08/23 00:30:34;;;;;;;14.55;9.15;;;17.80;99.90;;;;;;5081980;28;20040;-85
2023/08/23 00:32:59;;;;;;;12.25;8.38;;;17.70;99.90;;;;;;5083334;28;20024;-85
2023/08/23 00:35:26;;;;;;;14.05;8.82;;;17.80;99.90;;;;;;5079717;28;20066;-85
2023/08/23 00:37:54;;;;;;;13.82;8.30;;;17.80;99.90;;;;;;5075472;28;20074;-85
2023/08/23 00:40:21;;;;;;;14.13;10.00;;;17.80;99.90;;;;;;5085441;28;20024;-85
2023/08/23 00:42:47;;;;;;;10.48;7.65;;;17.80;99.90;;;;;;5081165;28;20050;-84
2023/08/23 00:45:13;;;;;;;10.57;8.88;;;17.80;99.90;;;;;;5081999;28;20774;-85
2023/08/23 00:47:39;;;;;;;12.00;8.93;;;17.90;99.90;;;;;;5062770;28;20122;-85
2023/08/23 00:50:05;;;;;;;13.15;8.65;;;17.90;99.90;;;;;;5084413;28;20034;-85
2023/08/23 00:52:31;;;;;;;10.95;8.68;;;17.90;99.90;;;;;;5063876;28;20035;-85
2023/08/23 00:54:57;;;;;;;18.25;8.90;;;17.90;99.90;;;;;;5086304;28;20027;-85
2023/08/23 00:57:25;;;;;;;15.55;8.77;;;17.90;99.90;;;;;;5081014;28;20028;-86
2023/08/23 00:59:50;;;;;;;14.93;8.18;;;18.10;99.90;;;;;;5067610;28;20375;-85
2023/08/23 01:02:16;;;;;;;13.30;9.35;;;18.10;99.90;;;;;;5080591;28;20161;-85
2023/08/23 01:04:43;;;;;;;14.25;8.75;;;18.10;99.90;;;;;;5062995;28;20032;-85
2023/08/23 01:07:23;;;;;;;20.15;8.75;;;18.10;99.90;;;;;;5081687;28;20027;-85
2023/08/23 01:10:01;;;;;;;;;;;18.10;99.90;;;;;;5080022;28;20506;-86
2023/08/23 01:12:28;;;;;;;13.82;8.85;;;18.10;99.90;;;;;;5098714;28;20329;-85
2023/08/23 01:15:01;;;;;;;13.75;8.90;;;18.00;99.90;;;;;;5061623;28;20024;-85
2023/08/23 01:17:29;;;;;;;15.38;9.63;;;18.00;99.90;;;;;;5076256;28;20536;-85
2023/08/23 01:19:56;;;;;;;11.63;8.50;;;17.90;99.90;;;;;;5063580;28;20032;-85
2023/08/23 01:22:27;;;;;;;12.68;9.25;;;17.90;99.90;;;;;;5083978;28;20115;-85
2023/08/23 01:24:54;;;;;;;18.60;9.80;;;17.80;99.90;;;;;;5064179;28;20024;-84
2023/08/23 01:27:20;;;;;;;14.38;8.73;;;17.70;99.90;;;;;;5061880;28;20146;-85
2023/08/23 01:29:47;;;;;;;19.38;8.63;;;17.70;99.90;;;;;;5084244;28;20070;-85
2023/08/23 01:32:33;;;;;;;17.50;9.00;;;17.60;99.90;;;;;;5063572;28;20066;-85
2023/08/23 01:35:23;;;;;;;15.93;10.30;;;17.50;99.90;;;;;;5062137;28;20069;-85
2023/08/23 01:37:53;;;;;;;17.70;10.48;;;17.40;99.90;;;;;;5065669;28;20043;-85
2023/08/23 01:40:19;;;;;;;18.52;9.80;;;17.30;99.90;;;;;;5062618;28;20024;-85
2023/08/23 01:42:55;;;;;;;17.88;10.38;;;17.20;99.90;;;;;;5084658;28;20028;-85
2023/08/23 01:45:21;;;;;;;15.13;11.30;;;17.20;99.90;;;;;;5081097;28;20016;-85
2023/08/23 01:47:47;;;;;;;18.08;11.40;;;17.00;99.90;;;;;;5078467;28;20130;-85
2023/08/23 01:50:13;;;;;;;21.35;12.52;;;16.90;99.90;;;;;;5065219;28;20119;-85
2023/08/23 01:52:39;;;;;;;17.58;10.77;;;16.90;99.90;;;;;;5080593;28;20047;-85
2023/08/23 01:55:07;;;;;;;16.05;11.02;;;16.90;99.90;;;;;;5067612;28;20032;-85
2023/08/23 01:57:33;;;;;;;15.27;11.32;;;16.80;99.90;;;;;;5085497;28;20027;-85
2023/08/23 01:59:59;;;;;;;19.35;13.05;;;16.80;99.90;;;;;;5064719;28;20475;-85
2023/08/23 02:02:26;;;;;;;18.60;12.27;;;16.70;99.90;;;;;;5069523;28;20032;-85
2023/08/23 02:04:52;;;;;;;21.48;13.15;;;16.70;99.90;;;;;;5083656;28;20024;-85
2023/08/23 02:07:17;;;;;;;15.30;12.10;;;16.60;99.90;;;;;;5070540;28;20047;-85
2023/08/23 02:09:44;;;;;;;15.15;11.55;;;16.60;99.90;;;;;;5085559;28;20032;-85
2023/08/23 02:12:10;;;;;;;19.10;12.57;;;16.50;99.90;;;;;;5068184;28;20475;-85
2023/08/23 02:14:36;;;;;;;16.58;12.55;;;16.50;99.90;;;;;;5066089;28;20074;-85
2023/08/23 02:17:02;;;;;;;13.73;11.38;;;16.40;99.90;;;;;;5070869;28;20020;-85
2023/08/23 02:19:27;;;;;;;13.30;11.70;;;16.40;99.90;;;;;;5067637;28;20055;-85
2023/08/23 02:21:53;;;;;;;14.80;12.35;;;16.30;99.90;;;;;;5073720;28;20023;-85
2023/08/23 02:24:19;;;;;;;19.95;12.35;;;16.30;99.90;;;;;;5068600;28;20074;-85
2023/08/23 02:26:44;;;;;;;19.90;12.82;;;16.30;99.90;;;;;;5066128;28;20024;-85
2023/08/23 02:29:10;;;;;;;15.65;12.85;;;16.30;99.90;;;;;;5086552;28;20031;-85
2023/08/23 02:31:36;;;;;;;19.75;14.23;;;16.20;99.90;;;;;;5066492;28;20028;-85
2023/08/23 02:34:01;;;;;;;15.63;13.05;;;16.10;99.90;;;;;;5064322;28;20035;-85
2023/08/23 02:36:28;;;;;;;15.68;13.77;;;16.00;99.90;;;;;;5068583;28;20095;-85
2023/08/23 02:38:54;;;;;;;18.50;14.57;;;16.00;99.90;;;;;;5066781;28;20629;-85
2023/08/23 02:41:21;;;;;;;17.52;13.38;;;16.00;99.90;;;;;;5070815;28;20015;-85
2023/08/23 02:43:46;;;;;;;18.65;14.20;;;16.00;99.90;;;;;;5070185;28;20036;-85
2023/08/23 02:46:12;;;;;;;17.30;13.52;;;15.90;99.90;;;;;;5068741;28;20081;-85
2023/08/23 02:48:39;;;;;;;14.43;12.88;;;15.90;99.90;;;;;;5066869;28;20027;-84
2023/08/23 02:51:06;;;;;;;14.25;12.65;;;15.80;99.90;;;;;;5094484;28;20023;-85
2023/08/23 02:53:32;;;;;;;15.93;12.88;;;15.80;99.90;;;;;;5065905;28;20036;-84
2023/08/23 02:55:58;;;;;;;15.10;12.80;;;15.70;99.90;;;;;;5070879;28;20122;-85
2023/08/23 02:58:23;;;;;;;21.05;13.50;;;15.70;99.90;;;;;;5066903;28;20051;-84
2023/08/23 03:00:49;;;;;;;17.88;13.25;;;15.60;99.90;;;;;;5066264;28;20039;-84
2023/08/23 03:03:16;;;;;;;17.70;12.93;;;15.60;99.90;;;;;;5068155;28;20020;-85
2023/08/23 03:05:56;;;;;;;17.52;14.18;;;15.60;99.90;;;;;;5066818;28;20154;-85
2023/08/23 03:08:26;;;;;;;16.42;13.60;;;15.50;99.90;;;;;;5056592;28;20032;-85
2023/08/23 03:11:02;;;;;;;18.48;13.68;;;15.50;99.90;;;;;;5086475;28;20356;-85
2023/08/23 03:13:28;;;;;;;20.80;14.38;;;15.60;99.90;;;;;;5088694;28;20040;-84
2023/08/23 03:15:57;;;;;;;19.48;14.05;;;15.60;99.90;;;;;;5080934;28;20023;-85
2023/08/23 03:18:23;;;;;;;17.35;13.82;;;15.60;99.90;;;;;;5087155;28;20028;-85
2023/08/23 03:20:50;;;;;;;18.95;13.88;;;15.60;99.90;;;;;;5088234;28;20059;-84
2023/08/23 03:23:18;;;;;;;19.02;14.30;;;15.60;99.90;;;;;;5080521;28;20387;-85
2023/08/23 03:25:45;;;;;;;20.67;14.85;;;15.60;99.90;;;;;;5072896;28;20102;-84
2023/08/23 03:28:12;;;;;;;21.23;15.85;;;15.50;99.90;;;;;;5063447;28;20050;-84
2023/08/23 03:30:38;;;;;;;18.05;15.27;;;15.50;99.90;;;;;;5084788;28;20418;-85
2023/08/23 03:33:08;;;;;;;22.45;15.80;;;15.50;99.90;;;;;;5065601;28;20037;-84
2023/08/23 03:35:35;;;;;;;20.63;14.10;;;15.50;99.90;;;;;;5069993;28;20036;-85
2023/08/23 03:38:03;;;;;;;20.10;16.20;;;15.40;99.90;;;;;;5067120;28;20032;-84
2023/08/23 03:40:37;;;;;;;21.92;14.93;;;15.40;99.90;;;;;;5063585;28;20024;-85
2023/08/23 03:43:06;;;;;;;27.48;16.75;;;15.40;99.90;;;;;;5086533;28;20019;-85
2023/08/23 03:45:34;;;;;;;19.23;15.18;;;15.40;99.90;;;;;;5065316;28;20074;-84
2023/08/23 03:48:02;;;;;;;23.00;15.73;;;15.40;99.90;;;;;;5080578;28;20047;-84
2023/08/23 03:50:28;;;;;;;16.92;15.07;;;15.40;99.90;;;;;;5066820;28;20478;-84
2023/08/23 03:52:54;;;;;;;19.30;14.50;;;15.40;99.90;;;;;;5066152;28;20105;-85
2023/08/23 03:55:20;;;;;;;19.63;14.80;;;15.40;99.90;;;;;;5060580;28;20086;-84
2023/08/23 03:57:47;;;;;;;22.88;15.25;;;15.30;99.90;;;;;;5084944;28;20020;-85
2023/08/23 04:00:13;;;;;;;22.38;15.45;;;15.20;99.90;;;;;;5063193;28;20024;-85
2023/08/23 04:02:43;;;;;;;23.27;16.13;;;15.20;99.90;;;;;;5105513;28;20450;-84
2023/08/23 04:05:11;;;;;;;22.45;19.02;;;15.20;99.90;;;;;;5065205;28;20394;-84
2023/08/23 04:07:38;;;;;;;23.70;19.60;;;15.10;99.90;;;;;;5083355;28;20453;-84
2023/08/23 04:10:06;;;;;;;24.63;19.23;;;15.10;99.90;;;;;;5063527;28;20032;-84
2023/08/23 04:12:32;;;;;;;21.38;17.00;;;15.20;99.90;;;;;;5104373;28;20036;-85
2023/08/23 04:14:58;;;;;;;22.23;17.02;;;15.20;99.90;;;;;;5064570;28;20494;-84
2023/08/23 04:17:26;;;;;;;19.90;17.63;;;15.20;99.90;;;;;;5062895;28;20054;-84
2023/08/23 04:19:52;;;;;;;24.40;17.38;;;15.20;99.90;;;;;;5082374;28;20028;-84
2023/08/23 04:22:17;;;;;;;23.45;17.40;;;15.30;99.90;;;;;;5066005;28;20392;-84
2023/08/23 04:24:43;;;;;;;24.70;18.42;;;15.30;99.90;;;;;;5068353;28;20028;-84
2023/08/23 04:27:09;;;;;;;22.00;16.80;;;15.30;99.90;;;;;;5067281;28;20363;-85
2023/08/23 04:29:35;;;;;;;31.83;17.73;;;15.20;99.90;;;;;;5076319;28;20031;-87
2023/08/23 04:32:01;;;;;;;27.63;17.65;;;15.20;99.90;;;;;;5087759;28;20035;-87
2023/08/23 04:34:30;;;;;;;23.63;18.55;;;15.20;99.90;;;;;;5079789;28;20364;-86
2023/08/23 04:36:55;;;;;;;23.70;19.75;;;15.30;99.90;;;;;;5064998;28;20024;-86
2023/08/23 04:39:21;;;;;;;26.08;20.42;;;15.30;99.90;;;;;;5080623;28;20069;-87
2023/08/23 04:41:47;;;;;;;29.27;20.50;;;15.40;99.90;;;;;;5066211;28;20027;-87
2023/08/23 04:44:13;;;;;;;27.75;21.23;;;15.40;99.90;;;;;;5064948;28;20042;-87
2023/08/23 04:46:39;;;;;;;24.58;20.08;;;15.50;99.90;;;;;;5086001;28;20075;-87
2023/08/23 04:49:04;;;;;;;27.05;20.00;;;15.60;99.90;;;;;;5083153;28;20028;-86
2023/08/23 04:51:30;;;;;;;29.95;18.67;;;15.60;99.90;;;;;;5063788;28;20055;-87
2023/08/23 04:53:56;;;;;;;22.38;18.92;;;15.70;99.90;;;;;;5067305;28;20042;-87
2023/08/23 04:56:22;;;;;;;31.20;18.63;;;15.80;99.90;;;;;;5065385;28;20114;-87
2023/08/23 04:58:49;;;;;;;28.00;20.05;;;15.80;99.90;;;;;;5076749;28;20032;-87
2023/08/23 05:01:16;;;;;;;30.35;19.48;;;15.90;99.90;;;;;;5083576;28;20016;-87
2023/08/23 05:03:43;;;;;;;26.23;18.55;;;15.90;99.90;;;;;;5076844;28;20055;-87
2023/08/23 05:06:09;;;;;;;26.58;21.20;;;16.00;99.90;;;;;;5068869;28;20091;-87
2023/08/23 05:08:35;;;;;;;23.67;19.45;;;16.10;99.90;;;;;;5061535;28;20019;-87
2023/08/23 05:11:05;;;;;;;22.50;17.40;;;16.10;99.90;;;;;;5063066;28;20621;-87
2023/08/23 05:13:30;;;;;;;20.80;15.43;;;16.20;99.90;;;;;;5062956;28;20110;-87
2023/08/23 05:15:57;;;;;;;27.13;16.30;;;16.20;99.90;;;;;;5081274;28;20430;-87
2023/08/23 05:18:23;;;;;;;26.17;16.33;;;16.20;99.90;;;;;;5063888;28;20024;-87
2023/08/23 05:20:54;;;;;;;22.45;16.25;;;16.30;99.90;;;;;;5067149;28;20153;-87
2023/08/23 05:23:23;;;;;;;20.70;16.08;;;16.40;99.90;;;;;;5063776;28;20031;-87
2023/08/23 05:25:52;;;;;;;18.80;16.13;;;16.40;99.90;;;;;;5078625;28;20020;-87
2023/08/23 05:28:19;;;;;;;20.75;17.05;;;16.50;99.90;;;;;;5066055;28;20059;-87
2023/08/23 05:30:45;;;;;;;26.10;17.90;;;16.50;99.90;;;;;;5065562;28;20031;-87
2023/08/23 05:33:14;;;;;;;31.42;17.00;;;16.70;99.90;;;;;;5073243;28;20395;-87
2023/08/23 05:35:41;;;;;;;23.52;17.58;;;16.80;99.90;;;;;;5084657;28;20043;-87
2023/08/23 05:38:07;;;;;;;29.75;18.10;;;16.90;99.90;;;;;;5067274;28;20453;-87
2023/08/23 05:40:33;;;;;;;26.45;17.50;;;17.00;99.90;;;;;;5069866;28;20475;-87
2023/08/23 05:42:59;;;;;;;22.58;16.80;;;17.10;99.90;;;;;;5085603;28;20027;-87
2023/08/23 05:45:26;;;;;;;20.92;15.77;;;17.20;99.90;;;;;;5064099;28;20081;-87
2023/08/23 05:47:56;;;;;;;20.23;14.70;;;17.30;99.90;;;;;;5069731;28;20023;-87
2023/08/23 05:50:22;;;;;;;23.65;15.75;;;17.40;99.90;;;;;;5065532;28;20032;-87
2023/08/23 05:52:48;;;;;;;17.98;14.73;;;17.50;99.90;;;;;;5071705;28;20620;-87
2023/08/23 05:55:14;;;;;;;26.50;15.23;;;17.60;99.90;;;;;;5068370;28;20035;-87
2023/08/23 05:57:39;;;;;;;20.35;15.40;;;17.80;99.90;;;;;;5104053;28;20023;-87
2023/08/23 06:00:06;;;;;;;19.80;14.43;;;17.90;99.90;;;;;;5083944;28;20032;-87
2023/08/23 06:02:38;;;;;;;20.42;14.38;;;18.00;99.90;;;;;;5090107;28;20024;-87
2023/08/23 06:05:07;;;;;;;22.45;12.38;;;18.10;99.90;;;;;;5080765;28;20024;-87
2023/08/23 06:07:33;;;;;;;20.40;13.68;;;18.30;99.90;;;;;;5108336;28;20085;-87
2023/08/23 06:09:58;;;;;;;16.98;13.15;;;18.40;99.90;;;;;;5083813;28;20043;-87
2023/08/23 06:12:25;;;;;;;19.02;11.88;;;18.50;99.90;;;;;;5085515;28;20039;-87
2023/08/23 06:14:51;;;;;;;17.80;11.38;;;18.70;99.90;;;;;;5091111;28;20030;-87
2023/08/23 06:17:17;;;;;;;22.70;10.95;;;18.80;99.90;;;;;;5071040;28;20023;-87
2023/08/23 06:19:43;;;;;;;14.93;10.18;;;19.00;99.90;;;;;;5079365;28;20024;-87
2023/08/23 06:22:09;;;;;;;13.45;9.70;;;19.10;99.90;;;;;;5071221;28;20033;-87
2023/08/23 06:24:35;;;;;;;17.08;9.98;;;19.20;99.90;;;;;;5080400;28;20032;-88
2023/08/23 06:27:01;;;;;;;17.92;10.02;;;19.40;99.90;;;;;;5090117;28;20081;-87
2023/08/23 06:29:27;;;;;;;14.38;8.70;;;19.50;99.90;;;;;;5066908;28;20040;-88
2023/08/23 06:31:53;;;;;;;10.60;8.13;;;19.60;99.90;;;;;;5073432;28;20020;-87
2023/08/23 06:34:18;;;;;;;12.75;8.15;;;19.80;99.90;;;;;;5083483;28;20024;-87
2023/08/23 06:36:44;;;;;;;9.55;7.32;;;20.00;99.90;;;;;;5088905;28;20062;-87
2023/08/23 06:39:10;;;;;;;12.80;6.90;;;20.10;99.90;;;;;;5067935;28;20024;-87
2023/08/23 06:41:37;;;;;;;15.75;7.95;;;20.30;99.90;;;;;;5065475;28;20110;-87
2023/08/23 06:44:03;;;;;;;12.02;6.22;;;20.50;99.90;;;;;;5086178;28;20099;-87
2023/08/23 06:46:29;;;;;;;14.60;6.80;;;20.70;99.90;;;;;;5068364;28;20081;-87
2023/08/23 06:48:55;;;;;;;10.40;6.65;;;20.80;99.90;;;;;;5069807;28;20031;-87
2023/08/23 06:51:22;;;;;;;10.63;5.70;;;21.00;99.90;;;;;;5086927;28;20047;-88
2023/08/23 06:53:49;;;;;;;12.88;7.45;;;21.10;99.90;;;;;;5078773;28;20483;-88
2023/08/23 06:56:15;;;;;;;8.63;5.55;;;21.20;99.90;;;;;;5071410;28;20093;-88
2023/08/23 06:58:41;;;;;;;15.43;6.32;;;21.30;99.90;;;;;;5056894;28;20032;-88
2023/08/23 07:01:09;;;;;;;13.63;5.70;;;21.40;99.90;;;;;;5089286;28;20020;-87
2023/08/23 07:03:34;;;;;;;10.43;5.10;;;21.50;99.90;;;;;;5064523;28;20062;-88
2023/08/23 07:06:02;;;;;;;10.65;5.18;;;21.50;99.90;;;;;;5067842;28;20024;-88
2023/08/23 07:08:28;;;;;;;6.22;4.68;;;21.60;99.90;;;;;;5064942;28;20360;-88
2023/08/23 07:10:53;;;;;;;14.30;4.40;;;21.60;99.90;;;;;;5069896;28;20054;-88
2023/08/23 07:13:19;;;;;;;9.32;4.32;;;21.70;99.90;;;;;;5082552;28;20028;-88
2023/08/23 07:15:45;;;;;;;6.90;4.25;;;21.80;99.90;;;;;;5088446;28;20028;-88
2023/08/23 07:18:10;;;;;;;8.82;4.70;;;21.90;99.90;;;;;;5067419;28;20024;-87
2023/08/23 07:21:20;;;;;;;11.20;4.28;;;22.00;99.90;;;;;;5065133;28;20027;-88
2023/08/23 07:23:45;;;;;;;9.75;4.70;;;22.10;99.90;;;;;;5069792;28;20024;-88
2023/08/23 07:26:11;;;;;;;6.78;4.13;;;22.20;99.90;;;;;;5082144;28;20030;-87
2023/08/23 07:28:37;;;;;;;8.07;4.22;;;22.20;99.90;;;;;;5088487;28;20036;-87
2023/08/23 07:31:03;;;;;;;5.63;3.88;;;22.30;99.90;;;;;;5066251;28;20035;-88
2023/08/23 07:33:28;;;;;;;11.00;4.30;;;22.40;99.90;;;;;;5082416;28;20025;-88
2023/08/23 07:35:59;;;;;;;15.60;5.25;;;22.50;99.90;;;;;;5085160;28;20036;-87
2023/08/23 07:38:25;;;;;;;5.35;4.47;;;22.50;99.90;;;;;;5085572;28;20082;-87
2023/08/23 07:40:57;;;;;;;6.68;4.25;;;22.60;99.90;;;;;;5060155;28;20028;-88
2023/08/23 07:43:23;;;;;;;12.27;5.40;;;22.70;99.90;;;;;;5080487;28;20034;-88
2023/08/23 07:45:54;;;;;;;6.10;4.68;;;22.70;99.90;;;;;;5062382;28;20024;-88
2023/08/23 07:48:20;;;;;;;7.97;5.25;;;22.80;99.90;;;;;;5071686;28;20731;-87
2023/08/23 07:50:49;;;;;;;10.73;5.88;;;22.90;99.90;;;;;;5081120;28;20038;-87
2023/08/23 07:53:14;;;;;;;9.63;4.50;;;22.90;99.90;;;;;;5081668;28;20035;-88
2023/08/23 07:55:40;;;;;;;10.27;4.65;;;23.00;99.90;;;;;;5101580;28;20058;-88
2023/08/23 07:58:06;;;;;;;9.95;5.20;;;23.00;99.90;;;;;;5085446;28;20140;-87
2023/08/23 08:00:31;;;;;;;11.27;5.47;;;23.00;99.90;;;;;;5065168;28;20493;-88
2023/08/23 08:02:57;;;;;;;8.57;5.65;;;23.00;99.90;;;;;;5080031;28;20138;-88
2023/08/23 08:05:23;;;;;;;21.38;6.53;;;23.10;99.90;;;;;;5085215;28;20549;-89
2023/08/23 08:07:48;;;;;;;9.38;5.50;;;23.20;99.90;;;;;;5081586;28;20394;-88
2023/08/23 08:10:14;;;;;;;8.68;5.32;;;23.20;99.90;;;;;;5068331;28;20085;-88
2023/08/23 08:12:40;;;;;;;13.45;4.53;;;23.10;99.90;;;;;;5101505;28;20022;-87
2023/08/23 08:15:08;;;;;;;7.95;4.30;;;23.20;99.90;;;;;;5077858;28;20031;-88
2023/08/23 08:17:35;;;;;;;9.57;4.78;;;23.30;99.90;;;;;;5068008;28;20031;-88
2023/08/23 08:20:08;;;;;;;6.90;5.20;;;23.30;99.90;;;;;;5062054;28;20020;-88
2023/08/23 08:22:34;;;;;;;7.93;4.45;;;23.30;99.90;;;;;;5069706;28;20024;-88
2023/08/23 08:25:00;;;;;;;5.97;4.57;;;23.40;99.90;;;;;;5080881;28;20016;-88
2023/08/23 08:27:25;;;;;;;9.25;4.90;;;23.40;99.90;;;;;;5063926;28;20514;-88
2023/08/23 08:29:51;;;;;;;10.43;5.30;;;23.40;99.90;;;;;;5065877;28;20115;-88
2023/08/23 08:32:17;;;;;;;12.43;4.85;;;23.30;99.90;;;;;;5065494;28;20024;-88
2023/08/23 08:34:43;;;;;;;9.25;4.25;;;23.30;99.90;;;;;;5066330;28;20042;-88
2023/08/23 08:37:09;;;;;;;9.75;4.72;;;23.40;99.90;;;;;;5068697;28;20032;-88
2023/08/23 08:39:35;;;;;;;8.40;4.85;;;23.40;99.90;;;;;;5083277;28;20039;-88
2023/08/23 08:42:00;;;;;;;9.55;4.72;;;23.40;99.90;;;;;;5063913;28;20016;-88
2023/08/23 08:44:27;;;;;;;10.27;5.28;;;23.50;99.90;;;;;;5069327;28;20035;-88
2023/08/23 08:46:52;;;;;;;6.50;4.93;;;23.60;99.90;;;;;;5076780;28;20375;-88
2023/08/23 08:49:18;;;;;;;10.20;5.30;;;23.70;99.90;;;;;;5078625;28;20027;-88
2023/08/23 08:51:47;;;;;;;7.82;5.18;;;23.90;99.90;;;;;;5083948;28;20406;-88
2023/08/23 08:54:15;;;;;;;7.88;5.47;;;23.90;99.90;;;;;;5063070;28;20474;-90
2023/08/23 08:56:46;;;;;;;9.05;5.22;;;24.10;99.90;;;;;;5068221;28;20498;-88
2023/08/23 08:59:16;;;;;;;9.27;5.18;;;24.10;99.90;;;;;;5065392;28;20106;-89
2023/08/23 09:01:43;;;;;;;11.43;5.53;;;24.20;99.90;;;;;;5077980;28;20032;-88
2023/08/23 09:04:10;;;;;;;10.50;4.55;;;24.40;99.90;;;;;;5066951;28;20595;-89
2023/08/23 09:06:40;;;;;;;9.50;4.47;;;25.50;99.90;;;;;;5063236;28;20028;-88
2023/08/23 09:09:07;;;;;;;10.03;3.70;;;27.40;99.90;;;;;;5069456;28;20745;-89
2023/08/23 09:11:36;;;;;;;7.22;3.58;;;29.10;99.90;;;;;;5081388;28;20463;-88
2023/08/23 09:14:15;;;;;;;6.47;3.53;;;30.50;99.90;;;;;;5101195;28;20127;-89
2023/08/23 09:16:41;;;;;;;5.97;2.97;;;32.10;99.90;;;;;;5080362;28;20047;-88
2023/08/23 09:19:13;;;;;;;6.63;3.17;;;33.00;99.90;;;;;;5068522;28;20035;-89
2023/08/23 09:21:50;;;;;;;13.68;3.97;;;33.50;99.00;;;;;;5064377;28;20024;-89
2023/08/23 09:24:16;;;;;;;6.95;3.40;;;33.90;97.30;;;;;;5062087;28;20459;-88
2023/08/23 09:26:45;;;;;;;10.02;3.42;;;33.60;95.50;;;;;;5066628;28;20019;-88
2023/08/23 09:29:12;;;;;;;8.27;3.40;;;33.40;95.60;;;;;;5080226;28;20094;-88
2023/08/23 09:31:39;;;;;;;9.75;3.08;;;33.40;95.50;;;;;;5069191;28;20034;-89
2023/08/23 09:34:14;;;;;;;11.75;3.50;;;33.80;94.20;;;;;;5064971;28;20028;-89
2023/08/23 09:36:40;;;;;;;12.45;3.70;;;33.90;93.00;;;;;;5064128;28;20051;-89
2023/08/23 09:39:12;;;;;;;7.45;3.50;;;33.40;92.70;;;;;;5066813;28;20842;-90
2023/08/23 09:41:40;;;;;;;9.07;3.35;;;33.20;94.80;;;;;;5084292;28;20027;-89
2023/08/23 09:44:07;;;;;;;7.45;3.20;;;32.90;94.20;;;;;;5059775;28;20028;-87
2023/08/23 09:46:37;;;;;;;5.70;3.58;;;32.80;94.20;;;;;;5074384;28;20030;-89
2023/08/23 09:49:07;;;;;;;6.25;3.70;;;32.70;93.90;;;;;;5072311;28;20156;-89
2023/08/23 09:51:36;;;;;;;4.70;3.72;;;32.20;93.70;;;;;;5105622;28;20415;-89
2023/08/23 09:54:11;;;;;;;9.02;3.50;;;31.60;95.40;;;;;;5080554;28;20043;-89
2023/08/23 09:56:37;;;;;;;11.18;3.90;;;30.50;95.40;;;;;;5062903;28;20028;-89
2023/08/23 09:59:03;;;;;;;9.10;5.28;;;29.50;97.50;;;;;;5065891;28;20081;-88
2023/08/23 10:01:30;;;;;;;9.27;3.92;;;28.40;98.70;;;;;;5065028;28;20020;-89
2023/08/23 10:03:55;;;;;;;9.00;4.25;;;28.30;99.90;;;;;;5067052;28;20035;-89
2023/08/23 10:06:23;;;;;;;6.07;3.83;;;28.30;99.90;;;;;;5068342;28;20020;-88
2023/08/23 10:08:48;;;;;;;7.30;3.50;;;28.70;99.80;;;;;;5067027;28;20063;-88
2023/08/23 10:11:18;;;;;;;12.20;4.82;;;29.40;98.90;;;;;;5063190;28;20039;-88
2023/08/23 10:13:46;;;;;;;9.48;4.25;;;30.10;97.40;;;;;;5069010;28;20533;-89
2023/08/23 10:16:13;;;;;;;6.90;4.03;;;30.90;96.50;;;;;;5064952;28;20028;-89
2023/08/23 10:18:40;;;;;;;7.70;4.03;;;31.40;96.40;;;;;;5067069;28;20027;-89
2023/08/23 10:21:05;;;;;;;10.80;4.07;;;31.70;95.40;;;;;;5069588;28;20020;-89
2023/08/23 10:23:34;;;;;;;6.63;3.95;;;31.50;95.20;;;;;;5069010;28;20165;-89
2023/08/23 10:26:02;;;;;;;8.05;3.33;;;31.60;95.60;;;;;;5070793;28;20107;-88
2023/08/23 10:28:47;;;;;;;9.77;4.15;;;32.10;95.70;;;;;;5070239;28;20101;-89
2023/08/23 10:31:13;;;;;;;7.82;3.65;;;32.20;95.70;;;;;;5086016;28;20051;-89
2023/08/23 10:33:44;;;;;;;10.38;4.05;;;32.40;94.70;;;;;;5074274;28;20020;-89
2023/08/23 10:36:20;;;;;;;7.93;3.60;;;33.10;94.20;;;;;;5066793;28;20028;-89
2023/08/23 10:38:47;;;;;;;6.07;3.45;;;33.60;93.80;;;;;;5065595;28;20032;-89
2023/08/23 10:41:17;;;;;;;7.75;3.25;;;33.50;92.60;;;;;;5086411;28;20639;-89
2023/08/23 10:43:47;;;;;;;6.57;3.67;;;32.90;91.10;;;;;;5083976;28;20099;-89
2023/08/23 10:46:18;;;;;;;8.90;3.53;;;32.70;91.00;;;;;;5088265;28;20405;-89
2023/08/23 10:48:44;;;;;;;5.00;2.88;;;32.40;91.90;;;;;;5068512;28;20036;-89
2023/08/23 10:51:11;;;;;;;5.50;3.22;;;32.00;91.90;;;;;;5068587;28;20034;-88
2023/08/23 10:53:36;;;;;;;4.70;3.63;;;31.30;92.10;;;;;;5082773;28;20103;-88
2023/08/23 10:56:02;;;;;;;7.28;3.03;;;31.30;92.10;;;;;;5071091;28;20457;-90
2023/08/23 10:58:30;;;;;;;9.23;3.40;;;31.10;92.30;;;;;;5083847;28;20403;-89
2023/08/23 11:00:56;;;;;;;6.85;3.53;;;31.00;92.60;;;;;;5071713;28;20027;-89
2023/08/23 11:03:22;;;;;;;10.90;3.65;;;31.00;93.80;;;;;;5066998;28;20376;-89
2023/08/23 11:05:48;;;;;;;7.93;3.22;;;31.40;94.60;;;;;;5066003;28;20558;-89
2023/08/23 11:08:15;;;;;;;10.48;3.55;;;31.80;92.90;;;;;;5068253;28;20032;-89
2023/08/23 11:10:42;;;;;;;6.35;3.60;;;30.90;93.00;;;;;;5067705;28;20028;-89
2023/08/23 11:13:08;;;;;;;7.18;3.65;;;30.50;94.20;;;;;;5085608;28;20170;-89
2023/08/23 11:15:34;;;;;;;5.63;3.35;;;30.50;93.20;;;;;;5084822;28;20094;-89
2023/08/23 11:18:01;;;;;;;9.30;3.65;;;30.70;93.30;;;;;;5062087;28;20529;-89
2023/08/23 11:20:28;;;;;;;6.25;3.20;;;31.00;92.10;;;;;;5064728;28;20032;-89
2023/08/23 11:22:54;;;;;;;8.15;3.42;;;31.30;92.40;;;;;;5080250;28;20424;-89
2023/08/23 11:25:20;;;;;;;5.18;3.10;;;32.00;92.70;;;;;;5087382;28;20073;-90
2023/08/23 11:27:45;;;;;;;7.90;4.10;;;32.00;91.80;;;;;;5083388;28;20036;-89
2023/08/23 11:30:11;;;;;;;9.02;3.25;;;31.70;92.20;;;;;;5084370;28;20547;-88
2023/08/23 11:32:37;;;;;;;5.00;3.38;;;31.40;92.10;;;;;;5081500;28;20028;-90
2023/08/23 11:35:05;;;;;;;8.30;3.42;;;30.70;92.90;;;;;;5069061;28;20133;-89
2023/08/23 11:37:31;;;;;;;7.28;3.65;;;30.90;93.20;;;;;;5065405;28;20110;-89
2023/08/23 11:39:57;;;;;;;8.60;3.30;;;31.20;94.10;;;;;;5071105;28;20356;-88
2023/08/23 11:42:24;;;;;;;11.07;3.80;;;31.50;92.80;;;;;;5083307;28;20043;-88
2023/08/23 11:44:53;;;;;;;5.45;3.13;;;31.20;93.00;;;;;;5081218;28;20031;-89
2023/08/23 11:47:19;;;;;;;5.33;3.10;;;32.00;93.70;;;;;;5066659;28;20491;-89
2023/08/23 11:49:48;;;;;;;5.18;3.28;;;32.10;92.00;;;;;;5077933;28;20032;-89
2023/08/23 11:52:16;;;;;;;6.30;3.53;;;32.30;91.60;;;;;;5068331;28;20028;-89
2023/08/23 11:54:43;;;;;;;13.57;3.08;;;32.20;91.30;;;;;;5085694;28;20032;-88
2023/08/23 11:57:18;;;;;;;7.22;3.42;;;31.60;91.70;;;;;;5078107;28;20379;-89
2023/08/23 11:59:56;;;;;;;4.78;3.25;;;31.40;93.10;;;;;;5064829;28;20031;-88
2023/08/23 12:02:21;;;;;;;4.80;3.10;;;31.20;93.70;;;;;;5079662;28;20028;-89
2023/08/23 12:04:47;;;;;;;5.70;3.58;;;31.00;93.00;;;;;;5082057;28;20027;-89
2023/08/23 12:07:13;;;;;;;5.13;3.40;;;31.40;94.80;;;;;;5102608;28;20056;-90
2023/08/23 12:09:39;;;;;;;11.68;3.97;;;31.30;93.50;;;;;;5067426;28;20386;-90
2023/08/23 12:12:06;;;;;;;4.78;3.35;;;31.50;94.60;;;;;;5066353;28;20035;-89
2023/08/23 12:14:31;;;;;;;8.80;3.58;;;30.90;93.60;;;;;;5080717;28;20028;-89
2023/08/23 12:16:57;;;;;;;9.38;3.67;;;30.80;93.10;;;;;;5084947;28;20439;-88
2023/08/23 12:19:23;;;;;;;8.32;3.75;;;31.50;93.80;;;;;;5064771;28;20525;-89
2023/08/23 12:21:49;;;;;;;5.15;3.55;;;31.90;94.00;;;;;;5070358;28;20106;-89
2023/08/23 12:24:16;;;;;;;6.07;4.03;;;31.80;93.40;;;;;;5082307;28;20550;-89
2023/08/23 12:26:42;;;;;;;8.05;3.83;;;31.50;93.70;;;;;;5063173;28;20038;-89
2023/08/23 12:29:07;;;;;;;10.43;4.13;;;31.10;93.40;;;;;;5067187;28;20032;-90
2023/08/23 12:31:33;;;;;;;10.82;3.85;;;30.80;93.50;;;;;;5080674;28;20752;-89
2023/08/23 12:33:59;;;;;;;9.73;3.83;;;30.20;94.40;;;;;;5069909;28;20081;-89
2023/08/23 12:36:25;;;;;;;4.53;3.35;;;30.00;93.70;;;;;;5064549;28;20036;-88